<?xml version="1.0" encoding="utf-8"?>
<gpx xmlns:xsi="http://www.w3.org/2001/XMLSchema-instance" xmlns:xsd="http://www.w3.org/2001/XMLSchema" version="1.1" creator="Shapelink.com" xmlns="http://www.topografix.com/GPX/1/1" xmlns:gpxtpx="http://www.garmin.com/xmlschemas/TrackPointExtension/v1">
  <metadata>
    <name>Övrigt 2.21 km, 2019-07-08</name>
    <desc></desc>
    <author><name>Marian Moron</name></author> 
    <time>2019-07-08T20:29:03Z</time>
  </metadata>
  <trk>
    <name>Övrigt 2.21 km, 2019-07-08</name>
    <trkseg>
      <trkpt lat="51.229898208956" lon="4.457898176123">
        <ele>0</ele>
        <time>2019-07-08T20:29:03Z</time>
      </trkpt>
      <trkpt lat="51.230031229709" lon="4.45842397271">
        <ele>0</ele>
        <time>2019-07-08T20:29:35Z</time>
      </trkpt>
      <trkpt lat="51.230065846956" lon="4.458519191094">
        <ele>0</ele>
        <time>2019-07-08T20:29:43Z</time>
      </trkpt>
      <trkpt lat="51.230066098413" lon="4.458802918409">
        <ele>0</ele>
        <time>2019-07-08T20:30:19Z</time>
      </trkpt>
      <trkpt lat="51.230503968869" lon="4.45863854935">
        <ele>0</ele>
        <time>2019-07-08T20:30:48Z</time>
      </trkpt>
      <trkpt lat="51.230851650081" lon="4.458531763944">
        <ele>0</ele>
        <time>2019-07-08T20:31:18Z</time>
      </trkpt>
      <trkpt lat="51.230972349441" lon="4.458485831132">
        <ele>0</ele>
        <time>2019-07-08T20:31:29Z</time>
      </trkpt>
      <trkpt lat="51.231099586683" lon="4.458472923006">
        <ele>0</ele>
        <time>2019-07-08T20:31:37Z</time>
      </trkpt>
      <trkpt lat="51.231236127834" lon="4.458329508697">
        <ele>0</ele>
        <time>2019-07-08T20:31:59Z</time>
      </trkpt>
      <trkpt lat="51.231357665384" lon="4.45830494973">
        <ele>0.4</ele>
        <time>2019-07-08T20:32:10Z</time>
      </trkpt>
      <trkpt lat="51.231462690591" lon="4.458255077425">
        <ele>1</ele>
        <time>2019-07-08T20:32:24Z</time>
      </trkpt>
      <trkpt lat="51.231546341953" lon="4.458374351862">
        <ele>2</ele>
        <time>2019-07-08T20:32:36Z</time>
      </trkpt>
      <trkpt lat="51.231708112623" lon="4.459053201943">
        <ele>6.4</ele>
        <time>2019-07-08T20:33:05Z</time>
      </trkpt>
      <trkpt lat="51.231752955788" lon="4.459342880407">
        <ele>6.8</ele>
        <time>2019-07-08T20:33:27Z</time>
      </trkpt>
      <trkpt lat="51.231776676565" lon="4.459553349916">
        <ele>6.6</ele>
        <time>2019-07-08T20:33:46Z</time>
      </trkpt>
      <trkpt lat="51.231810371803" lon="4.459721574649">
        <ele>6.4</ele>
        <time>2019-07-08T20:33:58Z</time>
      </trkpt>
      <trkpt lat="51.231892262966" lon="4.46008358891">
        <ele>7.2</ele>
        <time>2019-07-08T20:34:17Z</time>
      </trkpt>
      <trkpt lat="51.231961748917" lon="4.460405118594">
        <ele>4.8</ele>
        <time>2019-07-08T20:34:39Z</time>
      </trkpt>
      <trkpt lat="51.232007681729" lon="4.46060075214">
        <ele>6</ele>
        <time>2019-07-08T20:35:10Z</time>
      </trkpt>
      <trkpt lat="51.232129889831" lon="4.461301227523">
        <ele>3.4</ele>
        <time>2019-07-08T20:35:40Z</time>
      </trkpt>
      <trkpt lat="51.232227036052" lon="4.46145319137">
        <ele>3.8</ele>
        <time>2019-07-08T20:35:56Z</time>
      </trkpt>
      <trkpt lat="51.232317476753" lon="4.461519073104">
        <ele>5.2</ele>
        <time>2019-07-08T20:36:06Z</time>
      </trkpt>
      <trkpt lat="51.232439517217" lon="4.461447407859">
        <ele>6</ele>
        <time>2019-07-08T20:36:18Z</time>
      </trkpt>
      <trkpt lat="51.232488048418" lon="4.461485545504">
        <ele>6.8</ele>
        <time>2019-07-08T20:36:22Z</time>
      </trkpt>
      <trkpt lat="51.232502884381" lon="4.461526784452">
        <ele>7.2</ele>
        <time>2019-07-08T20:36:24Z</time>
      </trkpt>
      <trkpt lat="51.232501208001" lon="4.461729710251">
        <ele>7.8</ele>
        <time>2019-07-08T20:36:37Z</time>
      </trkpt>
      <trkpt lat="51.232236507599" lon="4.461962643252">
        <ele>15.6</ele>
        <time>2019-07-08T20:36:59Z</time>
      </trkpt>
      <trkpt lat="51.232263329679" lon="4.462237485753">
        <ele>18.2</ele>
        <time>2019-07-08T20:37:32Z</time>
      </trkpt>
      <trkpt lat="51.232230472631" lon="4.462456253343">
        <ele>13.2</ele>
        <time>2019-07-08T20:37:58Z</time>
      </trkpt>
      <trkpt lat="51.232167105467" lon="4.462469329107">
        <ele>10.4</ele>
        <time>2019-07-08T20:38:05Z</time>
      </trkpt>
      <trkpt lat="51.232168614209" lon="4.462519536688">
        <ele>10</ele>
        <time>2019-07-08T20:38:07Z</time>
      </trkpt>
      <trkpt lat="51.232170290589" lon="4.462895800179">
        <ele>12.4</ele>
        <time>2019-07-08T20:38:24Z</time>
      </trkpt>
      <trkpt lat="51.231981949296" lon="4.463490160708">
        <ele>1.2</ele>
        <time>2019-07-08T20:38:52Z</time>
      </trkpt>
      <trkpt lat="51.23198831954" lon="4.46367523306">
        <ele>3</ele>
        <time>2019-07-08T20:39:04Z</time>
      </trkpt>
      <trkpt lat="51.232231059364" lon="4.464000618418">
        <ele>3.2</ele>
        <time>2019-07-08T20:39:36Z</time>
      </trkpt>
      <trkpt lat="51.231951103904" lon="4.463745389563">
        <ele>6.6</ele>
        <time>2019-07-08T20:40:04Z</time>
      </trkpt>
      <trkpt lat="51.231616414637" lon="4.463407096079">
        <ele>0</ele>
        <time>2019-07-08T20:40:35Z</time>
      </trkpt>
      <trkpt lat="51.231551538731" lon="4.463375915411">
        <ele>0</ele>
        <time>2019-07-08T20:40:42Z</time>
      </trkpt>
      <trkpt lat="51.231446597343" lon="4.463290000936">
        <ele>0.4</ele>
        <time>2019-07-08T20:40:55Z</time>
      </trkpt>
      <trkpt lat="51.231373004261" lon="4.463181622969">
        <ele>0</ele>
        <time>2019-07-08T20:41:15Z</time>
      </trkpt>
      <trkpt lat="51.230960530962" lon="4.463353200462">
        <ele>0</ele>
        <time>2019-07-08T20:41:47Z</time>
      </trkpt>
      <trkpt lat="51.230886854061" lon="4.46336677914">
        <ele>0.8</ele>
        <time>2019-07-08T20:41:53Z</time>
      </trkpt>
      <trkpt lat="51.230801610138" lon="4.463382453293">
        <ele>2.8</ele>
        <time>2019-07-08T20:42:02Z</time>
      </trkpt>
      <trkpt lat="51.230514613882" lon="4.463345070019">
        <ele>18.8</ele>
        <time>2019-07-08T20:42:43Z</time>
      </trkpt>
      <trkpt lat="51.230434231461" lon="4.463568280016">
        <ele>12.2</ele>
        <time>2019-07-08T20:43:03Z</time>
      </trkpt>
      <trkpt lat="51.2304829303" lon="4.46381101984">
        <ele>5.8</ele>
        <time>2019-07-08T20:43:18Z</time>
      </trkpt>
      <trkpt lat="51.230456275858" lon="4.463843541612">
        <ele>7.8</ele>
        <time>2019-07-08T20:43:21Z</time>
      </trkpt>
      <trkpt lat="51.230398021653" lon="4.463843541612">
        <ele>5.8</ele>
        <time>2019-07-08T20:43:26Z</time>
      </trkpt>
      <trkpt lat="51.230332978109" lon="4.463875895746">
        <ele>0</ele>
        <time>2019-07-08T20:43:54Z</time>
      </trkpt>
      <trkpt lat="51.230006419285" lon="4.464210165918">
        <ele>10.6</ele>
        <time>2019-07-08T20:46:02Z</time>
      </trkpt>
      <trkpt lat="51.229962833405" lon="4.464206561701">
        <ele>18</ele>
        <time>2019-07-08T20:46:08Z</time>
      </trkpt>
      <trkpt lat="51.229922516466" lon="4.464201951656">
        <ele>22.6</ele>
        <time>2019-07-08T20:46:13Z</time>
      </trkpt>
      <trkpt lat="51.229618337315" lon="4.464231623582">
        <ele>18.6</ele>
        <time>2019-07-08T20:46:40Z</time>
      </trkpt>
      <trkpt lat="51.22939579787" lon="4.464267749571">
        <ele>13</ele>
        <time>2019-07-08T20:47:02Z</time>
      </trkpt>
      <trkpt lat="51.228955496663" lon="4.464340001549">
        <ele>14</ele>
        <time>2019-07-08T20:47:43Z</time>
      </trkpt>
      <trkpt lat="51.228720719644" lon="4.464490289016">
        <ele>1.2</ele>
        <time>2019-07-08T20:48:06Z</time>
      </trkpt>
      <trkpt lat="51.228599601189" lon="4.464168507875">
        <ele>4.8</ele>
        <time>2019-07-08T20:48:32Z</time>
      </trkpt>
      <trkpt lat="51.22846624516" lon="4.463483036093">
        <ele>4.4</ele>
        <time>2019-07-08T20:49:04Z</time>
      </trkpt>
      <trkpt lat="51.228428778067" lon="4.463448418846">
        <ele>3.8</ele>
        <time>2019-07-08T20:49:07Z</time>
      </trkpt>
      <trkpt lat="51.228214620522" lon="4.463278182457">
        <ele>1</ele>
        <time>2019-07-08T20:49:50Z</time>
      </trkpt>
      <trkpt lat="51.228203304957" lon="4.463234093663">
        <ele>3.4</ele>
        <time>2019-07-08T20:50:01Z</time>
      </trkpt>
      <trkpt lat="51.227843553809" lon="4.462971824012">
        <ele>17.2</ele>
        <time>2019-07-08T20:50:28Z</time>
      </trkpt>
      <trkpt lat="51.227771050374" lon="4.463026054905">
        <ele>14.8</ele>
        <time>2019-07-08T20:50:33Z</time>
      </trkpt>
      <trkpt lat="51.227711790341" lon="4.462986157061">
        <ele>7.6</ele>
        <time>2019-07-08T20:50:43Z</time>
      </trkpt>
      <trkpt lat="51.227600646347" lon="4.462457259171">
        <ele>7.2</ele>
        <time>2019-07-08T20:51:07Z</time>
      </trkpt>
      <trkpt lat="51.227480617539" lon="4.461853594733">
        <ele>9.4</ele>
        <time>2019-07-08T20:51:37Z</time>
      </trkpt>
      <trkpt lat="51.227446503206" lon="4.461748485707">
        <ele>7.8</ele>
        <time>2019-07-08T20:51:43Z</time>
      </trkpt>
      <trkpt lat="51.227310716426" lon="4.461647902907">
        <ele>1</ele>
        <time>2019-07-08T20:52:09Z</time>
      </trkpt>
      <trkpt lat="51.226990276389" lon="4.461720406342">
        <ele>7.2</ele>
        <time>2019-07-08T20:52:34Z</time>
      </trkpt>
      <trkpt lat="51.226859770206" lon="4.461703223447">
        <ele>11.6</ele>
        <time>2019-07-08T20:53:01Z</time>
      </trkpt>
      <trkpt lat="51.226848957555" lon="4.461642203215">
        <ele>12</ele>
        <time>2019-07-08T20:53:05Z</time>
      </trkpt>
      <trkpt lat="51.226809646444" lon="4.461582943182">
        <ele>13.4</ele>
        <time>2019-07-08T20:53:09Z</time>
      </trkpt>
      <trkpt lat="51.226671009818" lon="4.461120094664">
        <ele>9.2</ele>
        <time>2019-07-08T20:53:35Z</time>
      </trkpt>
      <trkpt lat="51.22658283223" lon="4.460556998622">
        <ele>9.4</ele>
        <time>2019-07-08T20:54:04Z</time>
      </trkpt>
      <trkpt lat="51.226440759025" lon="4.460001278652">
        <ele>9</ele>
        <time>2019-07-08T20:54:29Z</time>
      </trkpt>
      <trkpt lat="51.226419468999" lon="4.4599754624">
        <ele>8.8</ele>
        <time>2019-07-08T20:54:32Z</time>
      </trkpt>
      <trkpt lat="51.22629281849" lon="4.459619986021">
        <ele>7.6</ele>
        <time>2019-07-08T20:54:50Z</time>
      </trkpt>
      <trkpt lat="51.226287537893" lon="4.459551589717">
        <ele>6.6</ele>
        <time>2019-07-08T20:54:57Z</time>
      </trkpt>
      <trkpt lat="51.226309330833" lon="4.45949937048">
        <ele>10.8</ele>
        <time>2019-07-08T20:55:16Z</time>
      </trkpt>
      <trkpt lat="51.226326010814" lon="4.459486378535">
        <ele>11.8</ele>
        <time>2019-07-08T20:55:18Z</time>
      </trkpt>
      <trkpt lat="51.226771508799" lon="4.459250092774">
        <ele>14.2</ele>
        <time>2019-07-08T20:55:49Z</time>
      </trkpt>
      <trkpt lat="51.227206110314" lon="4.459031241365">
        <ele>3.2</ele>
        <time>2019-07-08T20:56:17Z</time>
      </trkpt>
      <trkpt lat="51.227628558074" lon="4.458769139352">
        <ele>7.4</ele>
        <time>2019-07-08T20:56:53Z</time>
      </trkpt>
      <trkpt lat="51.22769343398" lon="4.4587684688">
        <ele>6.8</ele>
        <time>2019-07-08T20:57:13Z</time>
      </trkpt>
      <trkpt lat="51.227778761722" lon="4.458684230705">
        <ele>3.8</ele>
        <time>2019-07-08T20:57:24Z</time>
      </trkpt>
      <trkpt lat="51.227962995884" lon="4.458529752288">
        <ele>0.8</ele>
        <time>2019-07-08T20:57:39Z</time>
      </trkpt>
      <trkpt lat="51.228402626539" lon="4.458288018292">
        <ele>0.4</ele>
        <time>2019-07-08T20:58:08Z</time>
      </trkpt>
      <trkpt lat="51.228839323529" lon="4.458089115805">
        <ele>1.6</ele>
        <time>2019-07-08T20:58:44Z</time>
      </trkpt>
      <trkpt lat="51.229292951957" lon="4.458011750868">
        <ele>3.2</ele>
        <time>2019-07-08T20:59:15Z</time>
      </trkpt>
      <trkpt lat="51.229736689743" lon="4.457885435635">
        <ele>6</ele>
        <time>2019-07-08T20:59:47Z</time>
      </trkpt>
      <trkpt lat="51.229755213742" lon="4.457898259942">
        <ele>6</ele>
        <time>2019-07-08T20:59:49Z</time>
      </trkpt>
      <trkpt lat="51.229742054159" lon="4.457946036772">
        <ele>7.4</ele>
        <time>2019-07-08T20:59:53Z</time>
      </trkpt>
      <trkpt lat="51.229696372804" lon="4.45795207174">
        <ele>10.2</ele>
        <time>2019-07-08T21:00:21Z</time>
      </trkpt>
    </trkseg>
  </trk>
</gpx>